sensor_id;sensor_type;location;lat;lon;timestamp;temperature;humidity
16825;DHT22;8529;48.108;-1.706;2022-08-19T00:01:45;20.40;99.90
16825;DHT22;8529;48.108;-1.706;2022-08-19T00:04:13;20.30;99.90
16825;DHT22;8529;48.108;-1.706;2022-08-19T00:06:43;20.30;99.90
16825;DHT22;8529;48.108;-1.706;2022-08-19T00:09:12;20.30;99.90
16825;DHT22;8529;48.108;-1.706;2022-08-19T00:11:42;20.20;99.90
16825;DHT22;8529;48.108;-1.706;2022-08-19T00:14:12;20.20;99.90
16825;DHT22;8529;48.108;-1.706;2022-08-19T00:16:41;20.20;99.90
16825;DHT22;8529;48.108;-1.706;2022-08-19T00:19:09;20.20;99.90
16825;DHT22;8529;48.108;-1.706;2022-08-19T00:21:36;20.20;99.90
16825;DHT22;8529;48.108;-1.706;2022-08-19T00:24:05;20.20;99.90
16825;DHT22;8529;48.108;-1.706;2022-08-19T00:26:32;20.20;99.90
16825;DHT22;8529;48.108;-1.706;2022-08-19T00:29:01;20.20;99.90
16825;DHT22;8529;48.108;-1.706;2022-08-19T00:31:28;20.20;99.90
16825;DHT22;8529;48.108;-1.706;2022-08-19T00:33:56;20.20;99.90
16825;DHT22;8529;48.108;-1.706;2022-08-19T00:36:23;20.20;99.90
16825;DHT22;8529;48.108;-1.706;2022-08-19T00:38:50;20.20;99.90
16825;DHT22;8529;48.108;-1.706;2022-08-19T00:41:19;20.20;99.90
16825;DHT22;8529;48.108;-1.706;2022-08-19T00:43:58;20.20;99.90
16825;DHT22;8529;48.108;-1.706;2022-08-19T00:46:26;20.20;99.90
16825;DHT22;8529;48.108;-1.706;2022-08-19T00:48:54;20.20;99.90
16825;DHT22;8529;48.108;-1.706;2022-08-19T00:51:21;20.20;99.90
16825;DHT22;8529;48.108;-1.706;2022-08-19T00:53:49;20.20;99.90
16825;DHT22;8529;48.108;-1.706;2022-08-19T00:56:16;20.20;99.90
16825;DHT22;8529;48.108;-1.706;2022-08-19T00:58:44;20.20;99.90
16825;DHT22;8529;48.108;-1.706;2022-08-19T01:01:11;20.10;99.90
16825;DHT22;8529;48.108;-1.706;2022-08-19T01:03:40;20.20;99.90
16825;DHT22;8529;48.108;-1.706;2022-08-19T01:06:07;20.20;99.90
16825;DHT22;8529;48.108;-1.706;2022-08-19T01:08:34;20.10;99.90
16825;DHT22;8529;48.108;-1.706;2022-08-19T01:11:01;20.10;99.90
16825;DHT22;8529;48.108;-1.706;2022-08-19T01:13:32;20.10;99.90
16825;DHT22;8529;48.108;-1.706;2022-08-19T01:16:02;20.10;99.90
16825;DHT22;8529;48.108;-1.706;2022-08-19T01:18:30;20.10;99.90
16825;DHT22;8529;48.108;-1.706;2022-08-19T01:21:18;20.10;99.90
16825;DHT22;8529;48.108;-1.706;2022-08-19T01:23:49;20.10;99.90
16825;DHT22;8529;48.108;-1.706;2022-08-19T01:26:20;20.10;99.90
16825;DHT22;8529;48.108;-1.706;2022-08-19T01:28:51;20.10;99.90
16825;DHT22;8529;48.108;-1.706;2022-08-19T01:31:20;20.10;99.90
16825;DHT22;8529;48.108;-1.706;2022-08-19T01:33:48;20.20;99.90
16825;DHT22;8529;48.108;-1.706;2022-08-19T01:36:23;20.20;99.90
16825;DHT22;8529;48.108;-1.706;2022-08-19T01:38:52;20.20;99.90
16825;DHT22;8529;48.108;-1.706;2022-08-19T01:41:20;20.20;99.90
16825;DHT22;8529;48.108;-1.706;2022-08-19T01:43:49;20.20;99.90
16825;DHT22;8529;48.108;-1.706;2022-08-19T01:46:16;20.20;99.90
16825;DHT22;8529;48.108;-1.706;2022-08-19T01:48:44;20.20;99.90
16825;DHT22;8529;48.108;-1.706;2022-08-19T01:51:12;20.20;99.90
16825;DHT22;8529;48.108;-1.706;2022-08-19T01:53:39;20.20;99.90
16825;DHT22;8529;48.108;-1.706;2022-08-19T01:56:09;20.20;99.90
16825;DHT22;8529;48.108;-1.706;2022-08-19T01:58:38;20.20;99.90
16825;DHT22;8529;48.108;-1.706;2022-08-19T02:01:07;20.20;99.90
16825;DHT22;8529;48.108;-1.706;2022-08-19T02:03:34;20.20;99.90
16825;DHT22;8529;48.108;-1.706;2022-08-19T02:06:02;20.20;99.90
16825;DHT22;8529;48.108;-1.706;2022-08-19T02:08:31;20.20;99.90
16825;DHT22;8529;48.108;-1.706;2022-08-19T02:10:59;20.20;99.90
16825;DHT22;8529;48.108;-1.706;2022-08-19T02:13:27;20.20;99.90
16825;DHT22;8529;48.108;-1.706;2022-08-19T02:15:54;20.20;99.90
16825;DHT22;8529;48.108;-1.706;2022-08-19T02:18:21;20.20;99.90
16825;DHT22;8529;48.108;-1.706;2022-08-19T02:20:48;20.20;99.90
16825;DHT22;8529;48.108;-1.706;2022-08-19T02:23:16;20.20;99.90
16825;DHT22;8529;48.108;-1.706;2022-08-19T02:25:46;20.20;99.90
16825;DHT22;8529;48.108;-1.706;2022-08-19T02:28:14;20.20;99.90
16825;DHT22;8529;48.108;-1.706;2022-08-19T02:30:42;20.30;99.90
16825;DHT22;8529;48.108;-1.706;2022-08-19T02:33:09;20.20;99.90
16825;DHT22;8529;48.108;-1.706;2022-08-19T02:35:36;20.20;99.90
16825;DHT22;8529;48.108;-1.706;2022-08-19T02:38:03;20.20;99.90
16825;DHT22;8529;48.108;-1.706;2022-08-19T02:40:52;20.20;99.90
16825;DHT22;8529;48.108;-1.706;2022-08-19T02:43:20;20.10;99.90
16825;DHT22;8529;48.108;-1.706;2022-08-19T02:45:49;20.10;99.90
16825;DHT22;8529;48.108;-1.706;2022-08-19T02:48:17;20.10;99.90
16825;DHT22;8529;48.108;-1.706;2022-08-19T02:50:45;20.10;99.90
16825;DHT22;8529;48.108;-1.706;2022-08-19T02:53:13;20.10;99.90
16825;DHT22;8529;48.108;-1.706;2022-08-19T02:55:43;20.10;99.90
16825;DHT22;8529;48.108;-1.706;2022-08-19T02:58:11;20.10;99.90
16825;DHT22;8529;48.108;-1.706;2022-08-19T03:00:42;20.10;99.90
16825;DHT22;8529;48.108;-1.706;2022-08-19T03:03:11;20.10;99.90
16825;DHT22;8529;48.108;-1.706;2022-08-19T03:05:39;20.10;99.90
16825;DHT22;8529;48.108;-1.706;2022-08-19T03:08:08;20.10;99.90
16825;DHT22;8529;48.108;-1.706;2022-08-19T03:10:41;20.10;99.90
16825;DHT22;8529;48.108;-1.706;2022-08-19T03:13:10;20.20;99.90
16825;DHT22;8529;48.108;-1.706;2022-08-19T03:15:39;20.20;99.90
16825;DHT22;8529;48.108;-1.706;2022-08-19T03:18:07;20.10;99.90
16825;DHT22;8529;48.108;-1.706;2022-08-19T03:20:40;20.10;99.90
16825;DHT22;8529;48.108;-1.706;2022-08-19T03:23:07;20.10;99.90
16825;DHT22;8529;48.108;-1.706;2022-08-19T03:25:37;20.10;99.90
16825;DHT22;8529;48.108;-1.706;2022-08-19T03:28:04;20.10;99.90
16825;DHT22;8529;48.108;-1.706;2022-08-19T03:30:31;20.10;99.90
16825;DHT22;8529;48.108;-1.706;2022-08-19T03:32:58;20.10;99.90
16825;DHT22;8529;48.108;-1.706;2022-08-19T03:35:25;20.10;99.90
16825;DHT22;8529;48.108;-1.706;2022-08-19T03:37:53;20.10;99.90
16825;DHT22;8529;48.108;-1.706;2022-08-19T03:40:21;20.10;99.90
16825;DHT22;8529;48.108;-1.706;2022-08-19T03:42:48;20.10;99.90
16825;DHT22;8529;48.108;-1.706;2022-08-19T03:45:15;20.10;99.90
16825;DHT22;8529;48.108;-1.706;2022-08-19T03:47:42;20.20;99.90
16825;DHT22;8529;48.108;-1.706;2022-08-19T03:50:10;20.10;99.90
16825;DHT22;8529;48.108;-1.706;2022-08-19T03:52:37;20.10;99.90
16825;DHT22;8529;48.108;-1.706;2022-08-19T03:55:07;20.10;99.90
16825;DHT22;8529;48.108;-1.706;2022-08-19T03:57:34;20.10;99.90
16825;DHT22;8529;48.108;-1.706;2022-08-19T04:00:01;20.10;99.90
16825;DHT22;8529;48.108;-1.706;2022-08-19T04:02:30;20.10;99.90
16825;DHT22;8529;48.108;-1.706;2022-08-19T04:04:57;20.10;99.90
16825;DHT22;8529;48.108;-1.706;2022-08-19T04:07:24;20.10;99.90
16825;DHT22;8529;48.108;-1.706;2022-08-19T04:09:51;20.10;99.90
16825;DHT22;8529;48.108;-1.706;2022-08-19T04:12:20;20.10;99.90
16825;DHT22;8529;48.108;-1.706;2022-08-19T04:14:47;20.10;99.90
16825;DHT22;8529;48.108;-1.706;2022-08-19T04:17:13;20.10;99.90
16825;DHT22;8529;48.108;-1.706;2022-08-19T04:19:41;20.10;99.90
16825;DHT22;8529;48.108;-1.706;2022-08-19T04:22:08;20.10;99.90
16825;DHT22;8529;48.108;-1.706;2022-08-19T04:24:36;20.10;99.90
16825;DHT22;8529;48.108;-1.706;2022-08-19T04:27:04;20.10;99.90
16825;DHT22;8529;48.108;-1.706;2022-08-19T04:29:33;20.10;99.90
16825;DHT22;8529;48.108;-1.706;2022-08-19T04:32:00;20.10;99.90
16825;DHT22;8529;48.108;-1.706;2022-08-19T04:34:28;20.10;99.90
16825;DHT22;8529;48.108;-1.706;2022-08-19T04:36:56;20.10;99.90
16825;DHT22;8529;48.108;-1.706;2022-08-19T04:39:26;20.10;99.90
16825;DHT22;8529;48.108;-1.706;2022-08-19T04:42:14;20.10;99.90
16825;DHT22;8529;48.108;-1.706;2022-08-19T04:45:00;20.10;99.90
16825;DHT22;8529;48.108;-1.706;2022-08-19T04:47:28;20.10;99.90
16825;DHT22;8529;48.108;-1.706;2022-08-19T04:49:57;20.10;99.90
16825;DHT22;8529;48.108;-1.706;2022-08-19T04:52:24;20.10;99.90
16825;DHT22;8529;48.108;-1.706;2022-08-19T04:54:50;20.10;99.90
16825;DHT22;8529;48.108;-1.706;2022-08-19T04:57:17;20.10;99.90
16825;DHT22;8529;48.108;-1.706;2022-08-19T04:59:44;20.10;99.90
16825;DHT22;8529;48.108;-1.706;2022-08-19T05:02:13;20.10;99.90
16825;DHT22;8529;48.108;-1.706;2022-08-19T05:04:39;20.10;99.90
16825;DHT22;8529;48.108;-1.706;2022-08-19T05:07:07;20.10;99.90
16825;DHT22;8529;48.108;-1.706;2022-08-19T05:09:35;20.10;99.90
16825;DHT22;8529;48.108;-1.706;2022-08-19T05:12:03;20.10;99.90
16825;DHT22;8529;48.108;-1.706;2022-08-19T05:14:31;20.00;99.90
16825;DHT22;8529;48.108;-1.706;2022-08-19T05:16:57;20.00;99.90
16825;DHT22;8529;48.108;-1.706;2022-08-19T05:19:26;20.00;99.90
16825;DHT22;8529;48.108;-1.706;2022-08-19T05:22:10;20.00;99.90
16825;DHT22;8529;48.108;-1.706;2022-08-19T05:24:55;20.00;99.90
16825;DHT22;8529;48.108;-1.706;2022-08-19T05:27:21;20.00;99.90
16825;DHT22;8529;48.108;-1.706;2022-08-19T05:29:48;20.00;99.90
16825;DHT22;8529;48.108;-1.706;2022-08-19T05:32:15;20.00;99.90
16825;DHT22;8529;48.108;-1.706;2022-08-19T05:34:44;20.00;99.90
16825;DHT22;8529;48.108;-1.706;2022-08-19T05:37:11;20.10;99.90
16825;DHT22;8529;48.108;-1.706;2022-08-19T05:39:38;20.10;99.90
16825;DHT22;8529;48.108;-1.706;2022-08-19T05:42:08;20.00;99.90
16825;DHT22;8529;48.108;-1.706;2022-08-19T05:44:37;20.00;99.90
16825;DHT22;8529;48.108;-1.706;2022-08-19T05:47:06;20.00;99.90
16825;DHT22;8529;48.108;-1.706;2022-08-19T05:49:35;20.00;99.90
16825;DHT22;8529;48.108;-1.706;2022-08-19T05:52:05;20.00;99.90
16825;DHT22;8529;48.108;-1.706;2022-08-19T05:54:33;20.00;99.90
16825;DHT22;8529;48.108;-1.706;2022-08-19T05:57:02;20.00;99.90
16825;DHT22;8529;48.108;-1.706;2022-08-19T05:59:29;20.00;99.90
16825;DHT22;8529;48.108;-1.706;2022-08-19T06:01:57;20.10;99.90
16825;DHT22;8529;48.108;-1.706;2022-08-19T06:04:24;20.10;99.90
16825;DHT22;8529;48.108;-1.706;2022-08-19T06:06:52;20.00;99.90
16825;DHT22;8529;48.108;-1.706;2022-08-19T06:09:21;20.00;99.90
16825;DHT22;8529;48.108;-1.706;2022-08-19T06:11:50;20.00;99.90
16825;DHT22;8529;48.108;-1.706;2022-08-19T06:14:22;20.00;99.90
16825;DHT22;8529;48.108;-1.706;2022-08-19T06:16:49;20.00;99.90
16825;DHT22;8529;48.108;-1.706;2022-08-19T06:19:19;20.00;99.90
16825;DHT22;8529;48.108;-1.706;2022-08-19T06:21:49;20.00;99.90
16825;DHT22;8529;48.108;-1.706;2022-08-19T06:24:18;20.00;99.90
16825;DHT22;8529;48.108;-1.706;2022-08-19T06:26:48;20.00;99.90
16825;DHT22;8529;48.108;-1.706;2022-08-19T06:29:16;20.00;99.90
16825;DHT22;8529;48.108;-1.706;2022-08-19T06:31:45;20.00;99.90
16825;DHT22;8529;48.108;-1.706;2022-08-19T06:34:12;20.00;99.90
16825;DHT22;8529;48.108;-1.706;2022-08-19T06:36:42;20.00;99.90
16825;DHT22;8529;48.108;-1.706;2022-08-19T06:39:12;20.00;99.90
16825;DHT22;8529;48.108;-1.706;2022-08-19T06:41:41;20.00;99.90
16825;DHT22;8529;48.108;-1.706;2022-08-19T06:44:10;20.00;99.90
16825;DHT22;8529;48.108;-1.706;2022-08-19T06:46:38;20.10;99.90
16825;DHT22;8529;48.108;-1.706;2022-08-19T06:49:05;20.10;99.90
16825;DHT22;8529;48.108;-1.706;2022-08-19T06:51:35;20.10;99.90
16825;DHT22;8529;48.108;-1.706;2022-08-19T06:54:03;20.10;99.90
16825;DHT22;8529;48.108;-1.706;2022-08-19T06:56:31;20.10;99.90
16825;DHT22;8529;48.108;-1.706;2022-08-19T06:59:00;20.10;99.90
16825;DHT22;8529;48.108;-1.706;2022-08-19T07:01:28;20.10;99.90
16825;DHT22;8529;48.108;-1.706;2022-08-19T07:03:55;20.10;99.90
16825;DHT22;8529;48.108;-1.706;2022-08-19T07:06:23;20.10;99.90
16825;DHT22;8529;48.108;-1.706;2022-08-19T07:08:50;20.10;99.90
16825;DHT22;8529;48.108;-1.706;2022-08-19T07:11:18;20.10;99.90
16825;DHT22;8529;48.108;-1.706;2022-08-19T07:13:46;20.10;99.90
16825;DHT22;8529;48.108;-1.706;2022-08-19T07:16:17;20.20;99.90
16825;DHT22;8529;48.108;-1.706;2022-08-19T07:18:46;20.20;99.90
16825;DHT22;8529;48.108;-1.706;2022-08-19T07:21:16;20.20;99.90
16825;DHT22;8529;48.108;-1.706;2022-08-19T07:23:43;20.20;99.90
16825;DHT22;8529;48.108;-1.706;2022-08-19T07:26:13;20.20;99.90
16825;DHT22;8529;48.108;-1.706;2022-08-19T07:28:40;20.30;99.90
16825;DHT22;8529;48.108;-1.706;2022-08-19T07:31:10;20.30;99.90
16825;DHT22;8529;48.108;-1.706;2022-08-19T07:33:37;20.30;99.90
16825;DHT22;8529;48.108;-1.706;2022-08-19T07:36:07;20.40;99.90
16825;DHT22;8529;48.108;-1.706;2022-08-19T07:38:35;20.40;99.90
16825;DHT22;8529;48.108;-1.706;2022-08-19T07:41:02;20.40;99.90
16825;DHT22;8529;48.108;-1.706;2022-08-19T07:43:29;20.40;99.90
16825;DHT22;8529;48.108;-1.706;2022-08-19T07:45:57;20.40;99.90
16825;DHT22;8529;48.108;-1.706;2022-08-19T07:48:24;20.40;99.90
16825;DHT22;8529;48.108;-1.706;2022-08-19T07:50:52;20.40;99.90
16825;DHT22;8529;48.108;-1.706;2022-08-19T07:53:21;20.40;99.90
16825;DHT22;8529;48.108;-1.706;2022-08-19T07:55:49;20.50;99.90
16825;DHT22;8529;48.108;-1.706;2022-08-19T07:58:18;20.50;99.90
16825;DHT22;8529;48.108;-1.706;2022-08-19T08:00:47;20.60;99.90
16825;DHT22;8529;48.108;-1.706;2022-08-19T08:03:17;20.70;99.90
16825;DHT22;8529;48.108;-1.706;2022-08-19T08:05:44;20.70;99.90
16825;DHT22;8529;48.108;-1.706;2022-08-19T08:08:30;20.70;99.90
16825;DHT22;8529;48.108;-1.706;2022-08-19T08:11:18;20.80;99.90
16825;DHT22;8529;48.108;-1.706;2022-08-19T08:13:47;20.90;99.90
16825;DHT22;8529;48.108;-1.706;2022-08-19T08:16:14;21.00;99.90
16825;DHT22;8529;48.108;-1.706;2022-08-19T08:18:41;21.10;99.90
16825;DHT22;8529;48.108;-1.706;2022-08-19T08:21:09;21.10;99.90
16825;DHT22;8529;48.108;-1.706;2022-08-19T08:23:37;21.20;99.90
16825;DHT22;8529;48.108;-1.706;2022-08-19T08:26:04;21.20;99.90
16825;DHT22;8529;48.108;-1.706;2022-08-19T08:28:31;21.20;99.90
16825;DHT22;8529;48.108;-1.706;2022-08-19T08:30:58;21.20;99.90
16825;DHT22;8529;48.108;-1.706;2022-08-19T08:33:27;21.30;99.90
16825;DHT22;8529;48.108;-1.706;2022-08-19T08:35:55;21.30;99.90
16825;DHT22;8529;48.108;-1.706;2022-08-19T08:38:22;21.30;99.90
16825;DHT22;8529;48.108;-1.706;2022-08-19T08:40:55;21.30;99.90
16825;DHT22;8529;48.108;-1.706;2022-08-19T08:43:33;21.30;99.90
16825;DHT22;8529;48.108;-1.706;2022-08-19T08:46:07;21.30;99.90
16825;DHT22;8529;48.108;-1.706;2022-08-19T08:48:38;21.40;99.90
16825;DHT22;8529;48.108;-1.706;2022-08-19T08:51:11;21.40;99.90
16825;DHT22;8529;48.108;-1.706;2022-08-19T08:53:40;21.40;99.90
16825;DHT22;8529;48.108;-1.706;2022-08-19T08:56:10;21.50;99.90
16825;DHT22;8529;48.108;-1.706;2022-08-19T08:58:48;21.60;99.90
16825;DHT22;8529;48.108;-1.706;2022-08-19T09:01:15;21.60;99.90
16825;DHT22;8529;48.108;-1.706;2022-08-19T09:03:43;21.60;99.90
16825;DHT22;8529;48.108;-1.706;2022-08-19T09:06:14;21.70;99.90
16825;DHT22;8529;48.108;-1.706;2022-08-19T09:08:51;21.70;99.90
16825;DHT22;8529;48.108;-1.706;2022-08-19T09:11:29;21.80;99.90
16825;DHT22;8529;48.108;-1.706;2022-08-19T09:14:09;21.80;99.90
16825;DHT22;8529;48.108;-1.706;2022-08-19T09:16:38;21.70;99.90
16825;DHT22;8529;48.108;-1.706;2022-08-19T09:19:07;21.70;99.90
16825;DHT22;8529;48.108;-1.706;2022-08-19T09:21:36;21.60;99.90
16825;DHT22;8529;48.108;-1.706;2022-08-19T09:24:04;21.50;99.90
16825;DHT22;8529;48.108;-1.706;2022-08-19T09:26:32;21.50;99.90
16825;DHT22;8529;48.108;-1.706;2022-08-19T09:28:59;21.40;99.90
16825;DHT22;8529;48.108;-1.706;2022-08-19T09:31:28;21.40;99.90
16825;DHT22;8529;48.108;-1.706;2022-08-19T09:33:56;21.50;99.90
16825;DHT22;8529;48.108;-1.706;2022-08-19T09:36:25;21.50;99.90
16825;DHT22;8529;48.108;-1.706;2022-08-19T09:38:55;21.50;99.90
16825;DHT22;8529;48.108;-1.706;2022-08-19T09:41:23;21.50;99.90
16825;DHT22;8529;48.108;-1.706;2022-08-19T09:43:53;21.50;99.90
16825;DHT22;8529;48.108;-1.706;2022-08-19T09:46:23;21.50;99.90
16825;DHT22;8529;48.108;-1.706;2022-08-19T09:48:51;21.50;99.90
16825;DHT22;8529;48.108;-1.706;2022-08-19T09:51:21;21.60;99.90
16825;DHT22;8529;48.108;-1.706;2022-08-19T09:53:49;21.60;99.90
16825;DHT22;8529;48.108;-1.706;2022-08-19T09:56:18;21.70;99.90
16825;DHT22;8529;48.108;-1.706;2022-08-19T09:58:45;21.70;99.90
16825;DHT22;8529;48.108;-1.706;2022-08-19T10:01:18;21.70;99.90
16825;DHT22;8529;48.108;-1.706;2022-08-19T10:03:48;21.70;99.90
16825;DHT22;8529;48.108;-1.706;2022-08-19T10:06:16;21.70;99.90
16825;DHT22;8529;48.108;-1.706;2022-08-19T10:08:44;21.70;99.90
16825;DHT22;8529;48.108;-1.706;2022-08-19T10:11:11;21.70;99.90
16825;DHT22;8529;48.108;-1.706;2022-08-19T10:13:41;21.80;99.90
16825;DHT22;8529;48.108;-1.706;2022-08-19T10:16:12;21.80;99.90
16825;DHT22;8529;48.108;-1.706;2022-08-19T10:18:42;21.80;99.90
16825;DHT22;8529;48.108;-1.706;2022-08-19T10:21:11;21.80;99.90
16825;DHT22;8529;48.108;-1.706;2022-08-19T10:23:40;21.70;99.90
16825;DHT22;8529;48.108;-1.706;2022-08-19T10:26:11;21.70;99.90
16825;DHT22;8529;48.108;-1.706;2022-08-19T10:28:38;21.70;99.90
16825;DHT22;8529;48.108;-1.706;2022-08-19T10:31:06;21.70;99.90
16825;DHT22;8529;48.108;-1.706;2022-08-19T10:33:34;21.70;99.90
16825;DHT22;8529;48.108;-1.706;2022-08-19T10:36:05;21.70;99.90
16825;DHT22;8529;48.108;-1.706;2022-08-19T10:38:33;21.70;99.90
16825;DHT22;8529;48.108;-1.706;2022-08-19T10:41:07;21.80;99.90
16825;DHT22;8529;48.108;-1.706;2022-08-19T10:43:34;21.80;99.90
16825;DHT22;8529;48.108;-1.706;2022-08-19T10:46:04;21.80;99.90
16825;DHT22;8529;48.108;-1.706;2022-08-19T10:48:31;21.80;99.90
16825;DHT22;8529;48.108;-1.706;2022-08-19T10:50:58;21.80;99.90
16825;DHT22;8529;48.108;-1.706;2022-08-19T10:53:44;21.70;99.90
16825;DHT22;8529;48.108;-1.706;2022-08-19T10:56:11;21.80;99.90
16825;DHT22;8529;48.108;-1.706;2022-08-19T10:58:56;21.80;99.90
16825;DHT22;8529;48.108;-1.706;2022-08-19T11:01:23;21.90;99.90
16825;DHT22;8529;48.108;-1.706;2022-08-19T11:03:50;21.90;99.90
16825;DHT22;8529;48.108;-1.706;2022-08-19T11:06:18;21.90;99.90
16825;DHT22;8529;48.108;-1.706;2022-08-19T11:08:47;22.00;99.90
16825;DHT22;8529;48.108;-1.706;2022-08-19T11:11:14;22.00;99.90
16825;DHT22;8529;48.108;-1.706;2022-08-19T11:13:42;22.00;99.90
16825;DHT22;8529;48.108;-1.706;2022-08-19T11:16:13;22.10;99.90
16825;DHT22;8529;48.108;-1.706;2022-08-19T11:18:44;22.10;99.90
16825;DHT22;8529;48.108;-1.706;2022-08-19T11:21:13;22.10;99.90
16825;DHT22;8529;48.108;-1.706;2022-08-19T11:23:43;22.10;99.90
16825;DHT22;8529;48.108;-1.706;2022-08-19T11:26:11;22.00;99.90
16825;DHT22;8529;48.108;-1.706;2022-08-19T11:28:38;22.00;99.90
16825;DHT22;8529;48.108;-1.706;2022-08-19T11:31:10;22.00;99.90
16825;DHT22;8529;48.108;-1.706;2022-08-19T11:33:37;22.00;99.90
16825;DHT22;8529;48.108;-1.706;2022-08-19T11:36:04;22.00;99.90
16825;DHT22;8529;48.108;-1.706;2022-08-19T11:38:31;22.00;99.90
16825;DHT22;8529;48.108;-1.706;2022-08-19T11:41:01;22.00;99.90
16825;DHT22;8529;48.108;-1.706;2022-08-19T11:43:30;22.00;99.90
16825;DHT22;8529;48.108;-1.706;2022-08-19T11:45:58;22.10;99.90
16825;DHT22;8529;48.108;-1.706;2022-08-19T11:48:25;22.10;99.90
16825;DHT22;8529;48.108;-1.706;2022-08-19T11:50:53;22.00;99.90
16825;DHT22;8529;48.108;-1.706;2022-08-19T11:53:21;22.00;99.90
16825;DHT22;8529;48.108;-1.706;2022-08-19T11:55:49;22.00;99.90
16825;DHT22;8529;48.108;-1.706;2022-08-19T11:58:17;22.10;99.90
16825;DHT22;8529;48.108;-1.706;2022-08-19T12:00:45;22.10;99.90
16825;DHT22;8529;48.108;-1.706;2022-08-19T12:03:13;22.10;99.90
16825;DHT22;8529;48.108;-1.706;2022-08-19T12:05:40;22.10;99.90
16825;DHT22;8529;48.108;-1.706;2022-08-19T12:08:07;22.10;99.90
16825;DHT22;8529;48.108;-1.706;2022-08-19T12:10:35;22.00;99.90
16825;DHT22;8529;48.108;-1.706;2022-08-19T12:13:02;22.00;99.90
16825;DHT22;8529;48.108;-1.706;2022-08-19T12:15:29;21.90;99.90
16825;DHT22;8529;48.108;-1.706;2022-08-19T12:17:58;21.90;99.90
16825;DHT22;8529;48.108;-1.706;2022-08-19T12:20:25;21.80;99.90
16825;DHT22;8529;48.108;-1.706;2022-08-19T12:22:52;21.80;99.90
16825;DHT22;8529;48.108;-1.706;2022-08-19T12:25:19;21.80;99.90
16825;DHT22;8529;48.108;-1.706;2022-08-19T12:27:46;21.80;99.90
16825;DHT22;8529;48.108;-1.706;2022-08-19T12:30:13;21.80;99.90
16825;DHT22;8529;48.108;-1.706;2022-08-19T12:32:40;21.80;99.90
16825;DHT22;8529;48.108;-1.706;2022-08-19T12:35:09;21.90;99.90
16825;DHT22;8529;48.108;-1.706;2022-08-19T12:37:37;21.90;99.90
16825;DHT22;8529;48.108;-1.706;2022-08-19T12:40:04;21.90;99.90
16825;DHT22;8529;48.108;-1.706;2022-08-19T12:42:31;22.00;99.90
16825;DHT22;8529;48.108;-1.706;2022-08-19T12:44:58;22.00;99.90
16825;DHT22;8529;48.108;-1.706;2022-08-19T12:47:25;22.00;99.90
16825;DHT22;8529;48.108;-1.706;2022-08-19T12:49:53;22.00;99.90
16825;DHT22;8529;48.108;-1.706;2022-08-19T12:52:21;22.00;99.90
16825;DHT22;8529;48.108;-1.706;2022-08-19T12:54:48;22.00;99.90
16825;DHT22;8529;48.108;-1.706;2022-08-19T12:57:15;22.00;99.90
16825;DHT22;8529;48.108;-1.706;2022-08-19T12:59:42;22.00;99.90
16825;DHT22;8529;48.108;-1.706;2022-08-19T13:02:10;22.00;99.90
16825;DHT22;8529;48.108;-1.706;2022-08-19T13:04:37;22.10;99.90
16825;DHT22;8529;48.108;-1.706;2022-08-19T13:07:07;22.10;99.90
16825;DHT22;8529;48.108;-1.706;2022-08-19T13:09:35;22.00;99.90
16825;DHT22;8529;48.108;-1.706;2022-08-19T13:12:03;22.00;99.90
16825;DHT22;8529;48.108;-1.706;2022-08-19T13:14:34;21.90;99.90
16825;DHT22;8529;48.108;-1.706;2022-08-19T13:17:01;21.90;99.90
16825;DHT22;8529;48.108;-1.706;2022-08-19T13:19:28;21.90;99.90
16825;DHT22;8529;48.108;-1.706;2022-08-19T13:21:56;21.80;99.90
16825;DHT22;8529;48.108;-1.706;2022-08-19T13:24:24;21.90;99.90
16825;DHT22;8529;48.108;-1.706;2022-08-19T13:26:52;21.90;99.90
16825;DHT22;8529;48.108;-1.706;2022-08-19T13:29:19;22.00;99.90
16825;DHT22;8529;48.108;-1.706;2022-08-19T13:32:03;22.00;99.90
16825;DHT22;8529;48.108;-1.706;2022-08-19T13:34:48;22.10;99.90
16825;DHT22;8529;48.108;-1.706;2022-08-19T13:37:15;22.10;99.90
16825;DHT22;8529;48.108;-1.706;2022-08-19T13:40:02;22.10;99.90
16825;DHT22;8529;48.108;-1.706;2022-08-19T13:42:31;22.10;99.90
16825;DHT22;8529;48.108;-1.706;2022-08-19T13:44:58;22.10;99.90
16825;DHT22;8529;48.108;-1.706;2022-08-19T13:47:25;22.10;99.90
16825;DHT22;8529;48.108;-1.706;2022-08-19T13:49:52;22.10;99.90
16825;DHT22;8529;48.108;-1.706;2022-08-19T13:52:19;22.10;99.90
16825;DHT22;8529;48.108;-1.706;2022-08-19T13:54:46;22.10;99.90
16825;DHT22;8529;48.108;-1.706;2022-08-19T13:57:14;22.00;99.90
16825;DHT22;8529;48.108;-1.706;2022-08-19T13:59:42;21.80;99.90
16825;DHT22;8529;48.108;-1.706;2022-08-19T14:02:09;21.70;99.90
16825;DHT22;8529;48.108;-1.706;2022-08-19T14:04:36;21.60;99.90
16825;DHT22;8529;48.108;-1.706;2022-08-19T14:07:04;21.50;99.90
16825;DHT22;8529;48.108;-1.706;2022-08-19T14:09:31;21.40;99.90
16825;DHT22;8529;48.108;-1.706;2022-08-19T14:11:58;21.40;99.90
16825;DHT22;8529;48.108;-1.706;2022-08-19T14:14:25;21.30;99.90
16825;DHT22;8529;48.108;-1.706;2022-08-19T14:16:53;21.20;99.90
16825;DHT22;8529;48.108;-1.706;2022-08-19T14:19:20;21.20;99.90
16825;DHT22;8529;48.108;-1.706;2022-08-19T14:21:47;21.20;99.90
16825;DHT22;8529;48.108;-1.706;2022-08-19T14:24:14;21.20;99.90
16825;DHT22;8529;48.108;-1.706;2022-08-19T14:26:40;21.20;99.90
16825;DHT22;8529;48.108;-1.706;2022-08-19T14:29:07;21.30;99.90
16825;DHT22;8529;48.108;-1.706;2022-08-19T14:31:34;21.20;99.90
16825;DHT22;8529;48.108;-1.706;2022-08-19T14:34:03;21.20;99.90
16825;DHT22;8529;48.108;-1.706;2022-08-19T14:36:29;21.20;99.90
16825;DHT22;8529;48.108;-1.706;2022-08-19T14:38:57;21.20;99.90
16825;DHT22;8529;48.108;-1.706;2022-08-19T14:41:26;21.20;99.90
16825;DHT22;8529;48.108;-1.706;2022-08-19T14:43:54;21.20;99.90
16825;DHT22;8529;48.108;-1.706;2022-08-19T14:46:22;21.10;99.90
16825;DHT22;8529;48.108;-1.706;2022-08-19T14:48:50;21.20;99.90
16825;DHT22;8529;48.108;-1.706;2022-08-19T14:51:19;21.10;99.90
16825;DHT22;8529;48.108;-1.706;2022-08-19T14:53:47;21.10;99.90
16825;DHT22;8529;48.108;-1.706;2022-08-19T14:56:17;21.20;99.90
16825;DHT22;8529;48.108;-1.706;2022-08-19T14:58:44;21.20;99.90
16825;DHT22;8529;48.108;-1.706;2022-08-19T15:01:12;21.20;99.90
16825;DHT22;8529;48.108;-1.706;2022-08-19T15:03:39;21.20;99.90
16825;DHT22;8529;48.108;-1.706;2022-08-19T15:06:07;21.20;99.90
16825;DHT22;8529;48.108;-1.706;2022-08-19T15:08:36;21.20;99.90
16825;DHT22;8529;48.108;-1.706;2022-08-19T15:11:07;21.20;99.90
16825;DHT22;8529;48.108;-1.706;2022-08-19T15:13:35;21.10;99.90
16825;DHT22;8529;48.108;-1.706;2022-08-19T15:16:02;21.10;99.90
16825;DHT22;8529;48.108;-1.706;2022-08-19T15:18:29;21.10;99.90
16825;DHT22;8529;48.108;-1.706;2022-08-19T15:20:56;21.10;99.90
16825;DHT22;8529;48.108;-1.706;2022-08-19T15:23:23;21.00;99.90
16825;DHT22;8529;48.108;-1.706;2022-08-19T15:25:51;21.00;99.90
16825;DHT22;8529;48.108;-1.706;2022-08-19T15:28:20;20.90;99.90
16825;DHT22;8529;48.108;-1.706;2022-08-19T15:30:47;21.00;99.90
16825;DHT22;8529;48.108;-1.706;2022-08-19T15:33:15;20.90;99.90
16825;DHT22;8529;48.108;-1.706;2022-08-19T15:35:43;20.80;99.90
16825;DHT22;8529;48.108;-1.706;2022-08-19T15:38:10;20.70;99.90
16825;DHT22;8529;48.108;-1.706;2022-08-19T15:40:39;20.70;99.90